Time;durP1;ratioP1;P1;durP2;ratioP2;P2;SDS_P1;SDS_P2;PMS_P1;PMS_P2;Temp;Humidity;BMP_temperature;BMP_pressure;BME280_temperature;BME280_humidity;BME280_pressure;Samples;Min_cycle;Max_cycle;Signal;HPM_P1;HPM_P2
2022/12/21 00:02:25;;;;;;;21.30;13.80;;;8.60;99.90;;;;;;5041706;28;20241;-81
2022/12/21 00:04:53;;;;;;;19.47;14.63;;;8.60;99.90;;;;;;5046364;28;20239;-80
2022/12/21 00:07:20;;;;;;;18.23;14.13;;;8.60;99.90;;;;;;5044353;28;20229;-80
2022/12/21 00:09:47;;;;;;;43.70;15.20;;;8.70;99.90;;;;;;5047575;28;20214;-80
2022/12/21 00:12:14;;;;;;;23.60;14.80;;;8.70;99.90;;;;;;5045474;28;20242;-80
2022/12/21 00:14:41;;;;;;;27.57;16.27;;;8.60;99.90;;;;;;5045282;28;20736;-82
2022/12/21 00:17:09;;;;;;;20.40;14.37;;;8.70;99.90;;;;;;5044332;28;20820;-80
2022/12/21 00:19:35;;;;;;;19.53;13.97;;;8.70;99.90;;;;;;5041059;28;20349;-80
2022/12/21 00:22:03;;;;;;;19.43;13.57;;;8.70;99.90;;;;;;5040018;28;20228;-80
2022/12/21 00:24:32;;;;;;;21.13;14.47;;;8.70;99.90;;;;;;5042256;28;20254;-81
2022/12/21 00:26:59;;;;;;;19.43;13.60;;;8.70;99.90;;;;;;5037445;28;20332;-80
2022/12/21 00:29:26;;;;;;;18.67;13.33;;;8.80;99.90;;;;;;5042406;28;20241;-81
2022/12/21 00:31:53;;;;;;;18.73;13.70;;;8.80;99.90;;;;;;5044139;28;20225;-80
2022/12/21 00:34:21;;;;;;;20.03;12.27;;;8.80;99.90;;;;;;5039087;28;20316;-80
2022/12/21 00:36:49;;;;;;;16.80;12.70;;;8.80;99.90;;;;;;5049640;28;20879;-80
2022/12/21 00:39:17;;;;;;;19.17;13.03;;;8.80;99.90;;;;;;5048721;28;21046;-81
2022/12/21 00:41:44;;;;;;;16.63;12.53;;;8.80;99.90;;;;;;5049790;28;20224;-82
2022/12/21 00:44:13;;;;;;;18.73;12.90;;;8.70;99.90;;;;;;5044830;28;20219;-81
2022/12/21 00:46:40;;;;;;;16.77;13.30;;;8.70;99.90;;;;;;5045336;28;20227;-80
2022/12/21 00:49:08;;;;;;;16.13;12.63;;;8.70;99.90;;;;;;5045662;28;20317;-83
2022/12/21 00:51:35;;;;;;;19.70;14.03;;;8.70;99.90;;;;;;5044471;28;20224;-80
2022/12/21 00:54:03;;;;;;;18.90;12.97;;;8.70;99.90;;;;;;5038686;28;20253;-80
2022/12/21 00:56:31;;;;;;;18.77;13.43;;;8.70;99.90;;;;;;5040651;28;20241;-80
2022/12/21 00:58:58;;;;;;;16.03;12.43;;;8.80;99.90;;;;;;5046967;28;20242;-80
2022/12/21 01:01:26;;;;;;;13.90;12.30;;;8.70;99.90;;;;;;5042865;28;20240;-80
2022/12/21 01:03:54;;;;;;;14.93;11.43;;;8.70;99.90;;;;;;5043312;28;20221;-80
2022/12/21 01:06:23;;;;;;;14.93;11.53;;;8.80;99.90;;;;;;5042185;28;20239;-82
2022/12/21 01:08:50;;;;;;;13.77;11.10;;;8.80;99.90;;;;;;5036535;28;20235;-80
2022/12/21 01:11:19;;;;;;;12.67;11.00;;;8.80;99.90;;;;;;5034516;28;20224;-80
2022/12/21 01:13:47;;;;;;;33.57;13.23;;;8.80;99.90;;;;;;5047014;28;20226;-81
2022/12/21 01:16:16;;;;;;;14.50;11.37;;;8.80;99.90;;;;;;5050069;28;20225;-80
2022/12/21 01:18:43;;;;;;;15.07;11.60;;;8.80;99.90;;;;;;5047935;28;20695;-81
2022/12/21 01:21:15;;;;;;;14.13;11.37;;;8.80;99.90;;;;;;5047250;28;20255;-83
2022/12/21 01:23:41;;;;;;;14.03;11.63;;;8.80;99.90;;;;;;5039045;28;20430;-84
2022/12/21 01:26:09;;;;;;;16.37;11.43;;;8.80;99.90;;;;;;5038050;28;20298;-82
2022/12/21 01:28:37;;;;;;;15.47;11.30;;;8.80;99.90;;;;;;5056021;28;20280;-80
2022/12/21 01:31:05;;;;;;;15.80;11.57;;;8.90;99.90;;;;;;5041511;28;20311;-80
2022/12/21 01:33:32;;;;;;;14.27;11.70;;;8.80;99.90;;;;;;5037939;28;20308;-80
2022/12/21 01:36:04;;;;;;;12.73;10.90;;;8.80;99.90;;;;;;5035574;28;21503;-80
2022/12/21 01:38:30;;;;;;;14.37;11.50;;;8.90;99.90;;;;;;5037089;28;20230;-80
2022/12/21 01:40:57;;;;;;;13.87;11.00;;;8.90;99.90;;;;;;5042825;28;20228;-80
2022/12/21 01:43:41;;;;;;;13.87;11.40;;;8.90;99.90;;;;;;5037533;28;20245;-82
2022/12/21 01:46:12;;;;;;;13.07;9.97;;;8.80;99.90;;;;;;5036133;28;20617;-81
2022/12/21 01:48:43;;;;;;;11.93;10.00;;;8.90;99.90;;;;;;5039928;28;20237;-80
2022/12/21 01:51:11;;;;;;;14.63;11.83;;;8.80;99.90;;;;;;5034972;28;20235;-82
2022/12/21 01:53:41;;;;;;;13.87;10.83;;;8.90;99.90;;;;;;5040576;28;20693;-81
2022/12/21 01:56:11;;;;;;;14.30;11.07;;;8.90;99.90;;;;;;5047996;28;20224;-81
2022/12/21 01:58:40;;;;;;;12.17;9.50;;;8.80;99.90;;;;;;5042085;28;20247;-81
2022/12/21 02:01:09;;;;;;;11.57;9.93;;;8.90;99.90;;;;;;5044737;28;20256;-80
2022/12/21 02:03:41;;;;;;;16.77;11.67;;;8.90;99.90;;;;;;5043940;28;20320;-80
2022/12/21 02:06:10;;;;;;;15.70;10.30;;;8.80;99.90;;;;;;5035964;28;20224;-79
2022/12/21 02:08:37;;;;;;;11.57;9.43;;;8.90;99.90;;;;;;5041093;28;20217;-80
2022/12/21 02:11:07;;;;;;;33.73;9.90;;;8.80;99.90;;;;;;5047435;28;20217;-79
2022/12/21 02:13:34;;;;;;;209.70;17.13;;;8.80;99.90;;;;;;5047404;28;20233;-80
2022/12/21 02:16:16;;;;;;;47.03;9.87;;;8.80;99.90;;;;;;5049155;28;20250;-80
2022/12/21 02:19:08;;;;;;;26.83;9.50;;;8.70;99.90;;;;;;5048297;28;20230;-80
2022/12/21 02:21:40;;;;;;;135.70;13.67;;;8.80;99.90;;;;;;5035473;28;20231;-80
2022/12/21 02:24:44;;;;;;;45.77;9.33;;;8.70;99.90;;;;;;5044000;28;20351;-80
2022/12/21 02:27:49;;;;;;;131.83;13.00;;;8.70;99.90;;;;;;5046327;28;20235;-79
2022/12/21 02:30:19;;;;;;;68.90;9.73;;;8.60;99.90;;;;;;5027811;28;20231;-79
2022/12/21 02:33:00;;;;;;;61.47;10.33;;;8.60;99.90;;;;;;5039972;28;20305;-81
2022/12/21 02:35:41;;;;;;;108.50;12.40;;;8.60;99.90;;;;;;5042173;28;20283;-80
2022/12/21 02:38:21;;;;;;;54.13;9.67;;;8.50;99.90;;;;;;5043093;28;20220;-80
2022/12/21 02:40:57;;;;;;;135.87;14.67;;;8.50;99.90;;;;;;5040766;28;20580;-80
2022/12/21 02:46:22;;;;;;;98.90;12.57;;;8.50;99.90;;;;;;5042219;28;20224;-79
2022/12/21 02:48:56;;;;;;;165.30;17.20;;;8.50;99.90;;;;;;5047197;28;20225;-79
2022/12/21 02:51:28;;;;;;;90.00;13.37;;;8.50;99.90;;;;;;5047432;28;20790;-79
2022/12/21 02:53:55;;;;;;;98.93;13.63;;;8.50;99.90;;;;;;5050016;28;20236;-79
2022/12/21 02:56:22;;;;;;;204.47;19.40;;;8.50;99.90;;;;;;5049256;28;20224;-79
2022/12/21 02:58:49;;;;;;;248.53;20.90;;;8.50;99.90;;;;;;5038035;28;20253;-80
2022/12/21 03:01:41;;;;;;;81.87;12.73;;;8.50;99.90;;;;;;5051068;28;20264;-79
2022/12/21 03:04:28;;;;;;;49.63;11.23;;;8.50;99.90;;;;;;5053001;28;20240;-79
2022/12/21 03:07:13;;;;;;;58.40;11.33;;;8.60;99.90;;;;;;5054799;28;20607;-80
2022/12/21 03:09:55;;;;;;;31.57;10.67;;;8.60;99.90;;;;;;5052159;28;20225;-79
2022/12/21 03:12:30;;;;;;;18.33;11.37;;;8.60;99.90;;;;;;5047541;28;20226;-79
2022/12/21 03:15:07;;;;;;;49.43;11.17;;;8.60;99.90;;;;;;5039418;28;20328;-79
2022/12/21 03:17:45;;;;;;;46.13;12.27;;;8.60;99.90;;;;;;5046578;28;20710;-80
2022/12/21 03:20:22;;;;;;;134.67;15.60;;;8.50;99.90;;;;;;5051036;28;20305;-82
2022/12/21 03:22:57;;;;;;;64.53;11.77;;;8.50;99.90;;;;;;5047932;28;20223;-82
2022/12/21 03:25:27;;;;;;;106.13;13.57;;;8.50;99.90;;;;;;5043413;28;21872;-80
2022/12/21 03:28:00;;;;;;;68.07;11.73;;;8.50;99.90;;;;;;5047016;28;20228;-81
2022/12/21 03:30:30;;;;;;;101.43;13.00;;;8.50;99.90;;;;;;5045971;28;20232;-83
2022/12/21 03:33:04;;;;;;;94.23;11.80;;;8.50;99.90;;;;;;5045543;28;20226;-83
2022/12/21 03:35:35;;;;;;;171.23;14.97;;;8.40;99.90;;;;;;5042862;28;20225;-80
2022/12/21 03:38:07;;;;;;;131.03;12.70;;;8.40;99.90;;;;;;5040604;28;20265;-81
2022/12/21 03:40:36;;;;;;;104.60;12.40;;;8.40;99.90;;;;;;5041769;28;20216;-80
2022/12/21 03:43:11;;;;;;;76.07;12.10;;;8.40;99.90;;;;;;5043352;28;20557;-81
2022/12/21 03:45:42;;;;;;;69.40;11.07;;;8.30;99.90;;;;;;5039020;28;20363;-79
2022/12/21 03:48:14;;;;;;;43.50;10.60;;;8.30;99.90;;;;;;5045900;28;21016;-80
2022/12/21 03:50:45;;;;;;;37.10;11.97;;;8.30;99.90;;;;;;5037938;28;20221;-82
2022/12/21 03:53:28;;;;;;;51.73;12.70;;;8.30;99.90;;;;;;5043262;28;20237;-80
2022/12/21 03:55:57;;;;;;;18.77;10.63;;;8.30;99.90;;;;;;5049168;28;20224;-80
2022/12/21 03:58:24;;;;;;;15.03;10.13;;;8.30;99.90;;;;;;5046324;28;20234;-79
2022/12/21 04:01:01;;;;;;;15.93;10.40;;;8.40;99.90;;;;;;5043309;28;20229;-80
2022/12/21 04:03:33;;;;;;;15.00;10.43;;;8.30;99.90;;;;;;5044540;28;20245;-80
2022/12/21 04:06:06;;;;;;;16.70;10.77;;;8.40;99.90;;;;;;5041630;28;20222;-80
2022/12/21 04:08:33;;;;;;;16.00;10.13;;;8.40;99.90;;;;;;5040329;28;21037;-80
2022/12/21 04:11:00;;;;;;;15.27;10.10;;;8.40;99.90;;;;;;5036029;28;20706;-81
2022/12/21 04:35:06;;;;;;;14.63;9.67;;;8.30;99.90;;;;;;4996952;28;20232;-78
2022/12/21 04:37:31;;;;;;;15.33;10.23;;;8.20;99.90;;;;;;4964124;28;20218;-78
2022/12/21 04:40:00;;;;;;;14.43;9.93;;;8.20;99.90;;;;;;4966614;28;20245;-78
2022/12/21 04:42:27;;;;;;;14.57;10.07;;;8.20;99.90;;;;;;4976628;28;20241;-78
2022/12/21 04:44:54;;;;;;;15.73;10.60;;;8.10;99.90;;;;;;4982472;28;20258;-77
2022/12/21 04:47:21;;;;;;;17.87;10.97;;;8.10;99.90;;;;;;4963826;28;20230;-77
2022/12/21 04:49:47;;;;;;;18.17;10.93;;;8.10;99.90;;;;;;4959700;28;20230;-77
2022/12/21 04:52:14;;;;;;;15.57;10.07;;;8.10;99.90;;;;;;4984048;28;20228;-78
2022/12/21 04:54:41;;;;;;;18.40;10.93;;;8.10;99.90;;;;;;4993434;28;20269;-77
2022/12/21 04:57:09;;;;;;;17.00;11.00;;;8.10;99.90;;;;;;4983309;28;20220;-78
2022/12/21 04:59:36;;;;;;;18.13;10.70;;;8.10;99.90;;;;;;4977296;28;20246;-78
2022/12/21 05:02:03;;;;;;;18.17;11.13;;;8.10;99.90;;;;;;4960817;28;20315;-78
2022/12/21 05:04:30;;;;;;;17.80;10.87;;;8.00;99.90;;;;;;4981612;28;20228;-78
2022/12/21 05:06:57;;;;;;;17.53;11.50;;;8.00;99.90;;;;;;4963953;28;20235;-77
2022/12/21 05:09:25;;;;;;;18.50;10.97;;;8.10;99.90;;;;;;4983643;28;20309;-78
2022/12/21 05:11:52;;;;;;;17.63;11.73;;;8.00;99.90;;;;;;4981284;28;21695;-79
2022/12/21 05:14:21;;;;;;;18.40;11.10;;;8.00;99.90;;;;;;4984946;28;20250;-78
2022/12/21 05:16:48;;;;;;;17.40;11.30;;;8.10;99.90;;;;;;4985983;28;20724;-78
2022/12/21 05:19:15;;;;;;;21.90;11.33;;;8.00;99.90;;;;;;4984719;28;20370;-77
2022/12/21 05:21:42;;;;;;;17.30;11.27;;;8.00;99.90;;;;;;4978389;28;20290;-79
2022/12/21 05:24:09;;;;;;;18.60;11.53;;;7.90;99.90;;;;;;4977213;28;20520;-80
2022/12/21 05:26:36;;;;;;;30.17;11.83;;;7.90;99.90;;;;;;4981945;28;20227;-79
2022/12/21 05:29:03;;;;;;;97.93;16.80;;;7.90;99.90;;;;;;4961934;28;20233;-79
2022/12/21 05:31:31;;;;;;;22.77;11.73;;;7.80;99.90;;;;;;4963728;28;20302;-80
2022/12/21 05:33:58;;;;;;;36.53;12.33;;;7.80;99.90;;;;;;4963274;28;20269;-80
2022/12/21 05:36:25;;;;;;;19.00;10.03;;;7.70;99.90;;;;;;4957431;28;20644;-80
2022/12/21 05:38:52;;;;;;;32.37;12.90;;;7.70;99.90;;;;;;4979961;28;20232;-80
2022/12/21 05:41:22;;;;;;;15.50;10.20;;;7.60;99.90;;;;;;4974399;28;21922;-79
2022/12/21 05:43:49;;;;;;;54.73;13.03;;;7.60;99.90;;;;;;4984329;28;20301;-79
2022/12/21 05:46:16;;;;;;;18.73;10.77;;;7.60;99.90;;;;;;4968911;28;20276;-79
2022/12/21 05:48:44;;;;;;;19.07;10.97;;;7.50;99.90;;;;;;4979425;28;20796;-79
2022/12/21 05:51:13;;;;;;;18.20;10.83;;;7.50;99.90;;;;;;4974657;28;20222;-79
2022/12/21 05:53:42;;;;;;;20.10;11.73;;;7.50;99.90;;;;;;4973127;28;20215;-79
2022/12/21 05:56:09;;;;;;;40.17;12.90;;;7.50;99.90;;;;;;4962396;28;20293;-79
2022/12/21 05:58:36;;;;;;;25.63;11.53;;;7.40;99.90;;;;;;4973841;28;20237;-78
2022/12/21 06:01:05;;;;;;;26.87;12.43;;;7.50;99.90;;;;;;4956139;28;20237;-78
2022/12/21 06:03:33;;;;;;;23.00;11.40;;;7.40;99.90;;;;;;4957464;28;20306;-78
2022/12/21 06:06:06;;;;;;;19.53;10.33;;;7.40;99.90;;;;;;4976753;28;20628;-78
2022/12/21 06:08:33;;;;;;;23.33;10.73;;;7.30;99.90;;;;;;4963761;28;20825;-78
2022/12/21 06:11:04;;;;;;;18.00;10.53;;;7.30;99.90;;;;;;4980644;28;20835;-81
2022/12/21 06:13:31;;;;;;;22.30;12.87;;;7.30;99.90;;;;;;4961345;28;20224;-79
2022/12/21 06:16:03;;;;;;;25.37;12.90;;;7.30;99.90;;;;;;4970332;28;20330;-79
2022/12/21 06:18:30;;;;;;;19.80;11.73;;;7.30;99.90;;;;;;4980778;28;20222;-79
2022/12/21 06:20:57;;;;;;;19.53;11.37;;;7.30;99.90;;;;;;4966038;28;20230;-79
2022/12/21 06:23:25;;;;;;;19.93;11.50;;;7.30;99.90;;;;;;4971827;28;20407;-79
2022/12/21 06:25:57;;;;;;;21.03;10.03;;;7.30;99.90;;;;;;4957584;28;20272;-79
2022/12/21 06:28:26;;;;;;;14.63;9.40;;;7.30;99.90;;;;;;4987156;28;20329;-79
2022/12/21 06:30:53;;;;;;;20.90;11.57;;;7.30;99.90;;;;;;4975102;28;20865;-79
2022/12/21 06:33:21;;;;;;;21.87;9.77;;;7.30;99.90;;;;;;4973286;28;20258;-79
2022/12/21 06:35:48;;;;;;;49.80;10.43;;;7.30;99.90;;;;;;4958271;28;20223;-79
2022/12/21 06:38:15;;;;;;;15.43;8.97;;;7.30;99.90;;;;;;4960278;28;20240;-79
2022/12/21 06:40:43;;;;;;;20.30;8.43;;;7.30;99.90;;;;;;4970341;28;20318;-79
2022/12/21 06:43:10;;;;;;;29.30;9.67;;;7.20;99.90;;;;;;4987345;28;20233;-79
2022/12/21 06:45:37;;;;;;;77.80;11.37;;;7.20;99.90;;;;;;4979190;28;20222;-79
2022/12/21 06:48:04;;;;;;;41.97;10.30;;;7.20;99.90;;;;;;4984322;28;20621;-79
2022/12/21 06:50:31;;;;;;;109.63;12.27;;;7.10;99.90;;;;;;4962268;28;20806;-79
2022/12/21 06:52:58;;;;;;;84.00;10.67;;;7.10;99.90;;;;;;4965223;28;20246;-80
2022/12/21 06:55:24;;;;;;;28.77;9.73;;;7.00;99.90;;;;;;4996553;28;20492;-80
2022/12/21 06:57:53;;;;;;;26.47;11.33;;;7.00;99.90;;;;;;4978195;28;20253;-80
2022/12/21 07:00:21;;;;;;;28.93;10.03;;;7.00;99.90;;;;;;4985915;28;20235;-81
2022/12/21 07:02:48;;;;;;;30.37;9.97;;;7.00;99.90;;;;;;4983405;28;20310;-80
2022/12/21 07:05:14;;;;;;;88.40;13.80;;;7.00;99.90;;;;;;4982722;28;20250;-80
2022/12/21 07:07:41;;;;;;;39.80;13.00;;;7.00;99.90;;;;;;4965900;28;20223;-79
2022/12/21 07:10:09;;;;;;;33.87;12.53;;;7.00;99.90;;;;;;4982596;28;20230;-80
2022/12/21 07:12:36;;;;;;;41.30;14.07;;;7.00;99.90;;;;;;4981971;28;20624;-80
2022/12/21 07:15:05;;;;;;;34.17;15.73;;;7.00;99.90;;;;;;4966815;28;20270;-80
2022/12/21 07:17:31;;;;;;;27.03;14.63;;;7.00;99.90;;;;;;4966167;28;20897;-80
2022/12/21 07:19:58;;;;;;;34.50;16.77;;;7.00;99.90;;;;;;4965347;28;20231;-78
2022/12/21 07:22:25;;;;;;;45.33;24.13;;;6.90;99.90;;;;;;4967766;28;20284;-78
2022/12/21 07:24:52;;;;;;;53.13;30.33;;;6.90;99.90;;;;;;4965002;28;20298;-80
2022/12/21 07:27:18;;;;;;;37.47;18.43;;;6.90;99.90;;;;;;4984594;28;20249;-79
2022/12/21 07:29:45;;;;;;;33.57;14.30;;;6.90;99.90;;;;;;4967723;28;20223;-80
2022/12/21 07:32:13;;;;;;;32.73;16.40;;;6.90;99.90;;;;;;4983699;28;20238;-78
2022/12/21 07:34:40;;;;;;;32.70;16.20;;;6.80;99.90;;;;;;4980837;28;20234;-77
2022/12/21 07:37:06;;;;;;;45.57;16.07;;;6.80;99.90;;;;;;4965842;28;20256;-77
2022/12/21 07:39:33;;;;;;;43.17;13.87;;;6.80;99.90;;;;;;4983741;28;20885;-78
2022/12/21 07:42:00;;;;;;;54.00;16.07;;;6.80;99.90;;;;;;4959781;28;20317;-78
2022/12/21 07:44:27;;;;;;;47.37;15.27;;;6.80;99.90;;;;;;4966786;28;20706;-78
2022/12/21 07:47:09;;;;;;;34.23;15.40;;;6.80;99.90;;;;;;4971066;28;20227;-78
2022/12/21 07:49:37;;;;;;;66.27;17.43;;;6.80;99.90;;;;;;4967831;28;20326;-77
2022/12/21 07:52:04;;;;;;;64.33;18.07;;;6.90;99.90;;;;;;4984520;28;20223;-78
2022/12/21 07:54:30;;;;;;;51.77;16.93;;;6.90;99.90;;;;;;4986286;28;20233;-78
2022/12/21 07:56:59;;;;;;;58.17;16.47;;;6.90;99.90;;;;;;4962020;28;20222;-78
2022/12/21 07:59:26;;;;;;;173.43;18.90;;;6.90;99.90;;;;;;4985773;28;20227;-78
2022/12/21 08:01:52;;;;;;;181.27;18.83;;;6.90;99.90;;;;;;4961620;28;20230;-79
2022/12/21 08:04:19;;;;;;;176.83;19.57;;;6.90;99.90;;;;;;4965197;28;20241;-79
2022/12/21 08:06:47;;;;;;;77.47;15.00;;;6.90;99.90;;;;;;4964996;28;20252;-77
2022/12/21 08:09:14;;;;;;;81.67;14.97;;;7.00;99.90;;;;;;4979014;28;21208;-78
2022/12/21 08:11:41;;;;;;;111.47;15.90;;;6.90;99.90;;;;;;4989088;28;20251;-78
2022/12/21 08:14:07;;;;;;;125.03;16.33;;;6.90;99.90;;;;;;4975483;28;20894;-79
2022/12/21 08:16:34;;;;;;;214.30;19.60;;;6.90;99.90;;;;;;4965481;28;20707;-79
2022/12/21 08:19:03;;;;;;;163.63;17.13;;;7.00;99.90;;;;;;4954030;28;20225;-78
2022/12/21 08:21:30;;;;;;;45.93;11.53;;;7.00;99.90;;;;;;4960549;28;20774;-79
2022/12/21 08:23:58;;;;;;;116.73;13.47;;;7.00;99.90;;;;;;4967755;28;20320;-79
2022/12/21 08:26:26;;;;;;;91.30;12.20;;;7.10;99.90;;;;;;4987047;28;20234;-80
2022/12/21 08:28:53;;;;;;;100.00;11.93;;;7.10;99.90;;;;;;4980671;28;20313;-78
2022/12/21 08:31:20;;;;;;;151.90;13.83;;;7.10;99.90;;;;;;4966633;28;20235;-77
2022/12/21 08:33:47;;;;;;;98.20;11.63;;;7.10;99.90;;;;;;4961677;28;20332;-78
2022/12/21 08:36:15;;;;;;;132.60;13.20;;;7.00;99.90;;;;;;4964115;28;20256;-79
2022/12/21 08:38:42;;;;;;;118.50;12.93;;;7.00;99.90;;;;;;4982165;28;20268;-79
2022/12/21 08:41:10;;;;;;;109.83;12.83;;;7.00;99.90;;;;;;4983412;28;20219;-78
2022/12/21 08:43:38;;;;;;;76.03;11.60;;;7.00;99.90;;;;;;4973104;28;20239;-79
2022/12/21 08:46:06;;;;;;;65.83;16.03;;;7.00;99.90;;;;;;4966441;28;21371;-77
2022/12/21 08:48:33;;;;;;;107.10;14.50;;;7.00;99.90;;;;;;4975861;28;20234;-79
2022/12/21 08:51:00;;;;;;;42.10;9.77;;;7.00;99.90;;;;;;4980123;28;20624;-78
2022/12/21 08:53:28;;;;;;;63.40;11.83;;;7.00;99.90;;;;;;4984607;28;20243;-78
2022/12/21 08:55:57;;;;;;;55.20;11.53;;;7.00;99.90;;;;;;4992984;28;20226;-78
2022/12/21 08:58:25;;;;;;;116.73;14.90;;;7.10;99.90;;;;;;4968936;28;20231;-78
2022/12/21 09:00:55;;;;;;;40.13;11.83;;;7.10;99.90;;;;;;4988745;28;20760;-78
2022/12/21 09:03:23;;;;;;;64.57;12.30;;;7.10;99.90;;;;;;4966644;28;20295;-78
2022/12/21 09:05:54;;;;;;;121.30;15.13;;;7.20;99.90;;;;;;4968403;28;20304;-78
2022/12/21 09:08:22;;;;;;;182.70;17.67;;;7.20;99.90;;;;;;4984818;28;20596;-79
2022/12/21 09:10:48;;;;;;;167.63;20.27;;;7.20;99.90;;;;;;4990558;28;20228;-77
2022/12/21 09:13:17;;;;;;;145.53;16.97;;;7.20;99.90;;;;;;4993660;28;20236;-77
2022/12/21 09:15:46;;;;;;;94.37;16.50;;;7.20;99.90;;;;;;4987238;28;20235;-79
2022/12/21 09:18:12;;;;;;;64.20;14.40;;;7.20;99.90;;;;;;4986214;28;20215;-79
2022/12/21 09:20:39;;;;;;;55.23;13.53;;;7.20;99.90;;;;;;4980558;28;20738;-79
2022/12/21 09:23:06;;;;;;;68.17;15.00;;;7.20;99.90;;;;;;4984542;28;20700;-79
2022/12/21 09:25:33;;;;;;;97.13;14.63;;;7.20;99.90;;;;;;4983553;28;20258;-78
2022/12/21 09:28:00;;;;;;;61.33;13.37;;;7.20;99.90;;;;;;4989822;28;20242;-79
2022/12/21 09:30:27;;;;;;;56.97;12.67;;;7.20;99.90;;;;;;4975064;28;20237;-79
2022/12/21 09:32:55;;;;;;;90.40;14.50;;;7.20;99.90;;;;;;4971298;28;20237;-79
2022/12/21 09:35:22;;;;;;;88.83;15.70;;;7.10;99.90;;;;;;4983260;28;20222;-78
2022/12/21 09:37:49;;;;;;;66.00;14.03;;;7.10;99.90;;;;;;4966409;28;20297;-78
2022/12/21 09:40:19;;;;;;;74.47;15.70;;;7.10;99.90;;;;;;4984368;28;20220;-78
2022/12/21 09:42:58;;;;;;;72.07;14.70;;;7.10;99.90;;;;;;5000733;28;20726;-79
2022/12/21 09:45:29;;;;;;;94.07;17.03;;;7.10;99.90;;;;;;4999648;28;21046;-78
2022/12/21 09:48:02;;;;;;;73.50;17.73;;;7.10;99.90;;;;;;5004601;28;20232;-78
2022/12/21 09:50:42;;;;;;;73.57;20.60;;;7.10;99.90;;;;;;4985835;28;20245;-78
2022/12/21 09:53:18;;;;;;;111.80;22.93;;;7.10;99.90;;;;;;4982892;28;20230;-79
2022/12/21 09:55:47;;;;;;;99.70;20.80;;;7.10;99.90;;;;;;5002538;28;20234;-79
2022/12/21 09:58:21;;;;;;;102.60;23.70;;;7.20;99.90;;;;;;4965924;28;20218;-79
2022/12/21 10:00:53;;;;;;;87.23;23.53;;;7.20;99.90;;;;;;4984012;28;20264;-79
2022/12/21 10:03:34;;;;;;;66.67;25.40;;;7.20;99.90;;;;;;4978648;28;20753;-79
2022/12/21 10:06:13;;;;;;;53.17;18.53;;;7.20;99.90;;;;;;4965291;28;20238;-79
2022/12/21 10:09:09;;;;;;;58.27;16.83;;;7.30;99.90;;;;;;4965137;28;20245;-78
2022/12/21 10:11:59;;;;;;;104.50;18.03;;;7.30;99.90;;;;;;4969683;28;20231;-78
2022/12/21 10:14:36;;;;;;;37.10;15.03;;;7.40;99.90;;;;;;4949272;28;20233;-78
2022/12/21 10:17:10;;;;;;;50.97;17.33;;;7.40;99.90;;;;;;4957572;28;20428;-79
2022/12/21 10:19:46;;;;;;;151.70;21.07;;;7.40;99.90;;;;;;4983655;28;20595;-79
2022/12/21 10:22:19;;;;;;;77.60;16.60;;;7.50;99.90;;;;;;4963173;28;20226;-79
2022/12/21 10:24:51;;;;;;;108.17;19.43;;;7.50;99.90;;;;;;4960234;28;20241;-78
2022/12/21 10:27:22;;;;;;;122.17;19.77;;;7.60;99.90;;;;;;4980498;28;20252;-78
2022/12/21 10:29:53;;;;;;;50.03;16.10;;;7.60;99.90;;;;;;4975563;28;20237;-78
2022/12/21 10:32:20;;;;;;;72.17;17.00;;;7.70;99.90;;;;;;4978174;28;20233;-81
2022/12/21 10:34:51;;;;;;;34.07;15.77;;;7.70;99.90;;;;;;4965816;28;20265;-78
2022/12/21 10:37:21;;;;;;;71.10;17.93;;;7.70;99.90;;;;;;4979462;28;20249;-79
2022/12/21 10:39:55;;;;;;;80.90;17.00;;;7.70;99.90;;;;;;4966266;28;20930;-78
2022/12/21 10:42:37;;;;;;;59.53;17.90;;;7.70;99.90;;;;;;4955071;28;20242;-79
2022/12/21 10:45:12;;;;;;;37.83;17.43;;;7.70;99.90;;;;;;4975323;28;20236;-78
2022/12/21 10:47:40;;;;;;;40.23;19.23;;;7.70;99.90;;;;;;4962919;28;20230;-79
2022/12/21 10:50:21;;;;;;;37.20;17.83;;;7.70;99.90;;;;;;4962495;28;20234;-80
2022/12/21 10:52:49;;;;;;;41.50;17.67;;;7.70;99.90;;;;;;4980738;28;20223;-80
2022/12/21 10:55:30;;;;;;;37.53;17.93;;;7.70;99.90;;;;;;4959489;28;20235;-78
2022/12/21 10:58:13;;;;;;;36.40;17.57;;;7.70;99.90;;;;;;4979296;28;20474;-79
2022/12/21 11:00:41;;;;;;;88.90;19.17;;;7.70;99.90;;;;;;4964467;28;20287;-78
2022/12/21 11:03:23;;;;;;;51.17;18.73;;;7.70;99.90;;;;;;4963395;28;20214;-78
2022/12/21 11:05:52;;;;;;;44.10;19.13;;;7.70;99.90;;;;;;4978923;28;20683;-80
2022/12/21 11:08:27;;;;;;;37.37;17.47;;;7.70;99.90;;;;;;4979328;28;20222;-79
2022/12/21 11:11:00;;;;;;;38.73;18.30;;;7.70;99.90;;;;;;4959422;28;20261;-79
2022/12/21 11:13:29;;;;;;;35.83;16.90;;;7.80;99.90;;;;;;4963688;28;20226;-79
2022/12/21 11:16:02;;;;;;;35.33;17.60;;;7.80;99.90;;;;;;4982305;28;20238;-79
2022/12/21 11:18:48;;;;;;;32.97;18.27;;;7.80;99.90;;;;;;4978818;28;20234;-80
2022/12/21 11:21:31;;;;;;;34.83;16.63;;;7.80;99.90;;;;;;4980209;28;20231;-79
2022/12/21 11:24:01;;;;;;;34.10;16.80;;;7.80;99.90;;;;;;4982535;28;20511;-80
2022/12/21 11:26:35;;;;;;;42.40;18.73;;;7.80;99.90;;;;;;4985974;28;20229;-79
2022/12/21 11:29:04;;;;;;;35.97;18.83;;;7.80;99.90;;;;;;4961682;28;20228;-79
2022/12/21 11:31:33;;;;;;;35.60;18.27;;;7.90;99.90;;;;;;4968864;28;20335;-80
2022/12/21 11:34:00;;;;;;;40.37;17.80;;;7.90;99.90;;;;;;4970518;28;20318;-78
2022/12/21 11:36:28;;;;;;;35.53;17.17;;;7.90;99.90;;;;;;4967382;28;20236;-79
2022/12/21 11:38:55;;;;;;;39.50;18.23;;;8.00;99.90;;;;;;4964709;28;20233;-79
2022/12/21 11:41:26;;;;;;;34.10;17.53;;;8.00;99.90;;;;;;4982946;28;20263;-79
2022/12/21 11:43:54;;;;;;;34.37;18.37;;;8.10;99.90;;;;;;4982612;28;20236;-79
2022/12/21 11:46:39;;;;;;;38.10;18.00;;;8.10;99.90;;;;;;4966490;28;20219;-79
2022/12/21 11:49:29;;;;;;;36.93;18.00;;;8.10;99.90;;;;;;4966668;28;20725;-79
2022/12/21 11:52:08;;;;;;;40.07;19.67;;;8.20;99.90;;;;;;4956847;28;20228;-79
2022/12/21 11:54:47;;;;;;;36.97;18.70;;;8.20;99.90;;;;;;4979301;28;20249;-79
2022/12/21 11:57:28;;;;;;;40.90;19.03;;;8.20;99.90;;;;;;4974733;28;20229;-79
2022/12/21 12:00:06;;;;;;;40.00;20.27;;;8.20;99.90;;;;;;4986772;28;20651;-79
2022/12/21 12:03:15;;;;;;;40.83;20.17;;;8.30;99.90;;;;;;4979007;28;20264;-79
2022/12/21 12:05:58;;;;;;;40.30;20.67;;;8.30;99.90;;;;;;4976674;28;20221;-79
2022/12/21 12:08:40;;;;;;;35.07;20.30;;;8.40;99.90;;;;;;4976486;28;20254;-79
2022/12/21 12:11:28;;;;;;;39.00;20.30;;;8.40;99.90;;;;;;4981293;28;20246;-79
2022/12/21 12:14:21;;;;;;;40.20;22.03;;;8.40;99.90;;;;;;4979783;28;20219;-79
2022/12/21 12:17:00;;;;;;;45.63;21.80;;;8.50;99.90;;;;;;4966900;28;20227;-79
2022/12/21 12:19:34;;;;;;;37.70;21.00;;;8.50;99.90;;;;;;4967498;28;20253;-79
2022/12/21 12:22:15;;;;;;;37.13;19.30;;;8.50;99.90;;;;;;4965294;28;20316;-78
2022/12/21 12:25:14;;;;;;;40.50;20.80;;;8.40;99.90;;;;;;4966223;28;20632;-79
2022/12/21 12:27:54;;;;;;;37.93;19.00;;;8.40;99.90;;;;;;4959643;28;20257;-79
2022/12/21 12:30:23;;;;;;;33.83;17.80;;;8.50;99.90;;;;;;4966746;28;20754;-79
2022/12/21 12:33:01;;;;;;;30.27;17.43;;;8.50;99.90;;;;;;4979502;28;20233;-78
2022/12/21 12:35:50;;;;;;;40.43;18.07;;;8.50;99.90;;;;;;4966908;28;20231;-78
2022/12/21 12:38:25;;;;;;;28.97;15.93;;;8.50;99.90;;;;;;4962651;28;20231;-79
2022/12/21 12:41:05;;;;;;;33.70;16.70;;;8.40;99.90;;;;;;4963934;28;20229;-79
2022/12/21 12:43:45;;;;;;;28.10;15.40;;;8.40;99.90;;;;;;4976738;28;20229;-78
2022/12/21 12:46:21;;;;;;;32.67;16.97;;;8.40;99.90;;;;;;4985582;28;20231;-78
2022/12/21 12:49:00;;;;;;;27.50;16.13;;;8.40;99.90;;;;;;4983017;28;20267;-78
2022/12/21 12:51:33;;;;;;;26.63;15.00;;;8.40;99.90;;;;;;4983346;28;20227;-79
2022/12/21 12:54:09;;;;;;;23.87;13.60;;;8.40;99.90;;;;;;4983024;28;20252;-78
2022/12/21 12:56:44;;;;;;;25.80;14.37;;;8.40;99.90;;;;;;4967062;28;20246;-78
2022/12/21 12:59:19;;;;;;;24.80;14.60;;;8.40;99.90;;;;;;4981208;28;20731;-78
2022/12/21 13:01:55;;;;;;;26.63;16.40;;;8.30;99.90;;;;;;4965537;28;20256;-78
2022/12/21 13:04:46;;;;;;;26.90;14.33;;;8.30;99.90;;;;;;4960835;28;20259;-79
2022/12/21 13:07:23;;;;;;;27.53;14.43;;;8.30;99.90;;;;;;4981725;28;20221;-79
2022/12/21 13:10:01;;;;;;;25.47;15.13;;;8.30;99.90;;;;;;4966272;28;20232;-79
2022/12/21 13:12:37;;;;;;;25.30;14.57;;;8.30;99.90;;;;;;4966109;28;20227;-79
2022/12/21 13:15:11;;;;;;;28.13;15.07;;;8.30;99.90;;;;;;4985843;28;20254;-79
2022/12/21 13:17:44;;;;;;;26.67;15.07;;;8.30;99.90;;;;;;4982452;28;20222;-79
2022/12/21 13:20:17;;;;;;;27.10;15.43;;;8.30;99.90;;;;;;4963045;28;20269;-79
2022/12/21 13:22:46;;;;;;;27.77;15.23;;;8.20;99.90;;;;;;4967517;28;20727;-79